createdAt,value
2019-03-28T00:01:37.031Z,99.90
2019-03-28T00:04:05.034Z,99.90
2019-03-28T00:06:33.069Z,99.90
2019-03-28T00:09:01.083Z,99.90
2019-03-28T00:11:29.136Z,99.90
2019-03-28T00:13:57.156Z,99.90
2019-03-28T00:16:25.163Z,99.90
2019-03-28T00:18:53.245Z,99.90
2019-03-28T00:21:21.607Z,99.90
2019-03-28T00:24:17.908Z,99.90
2019-03-28T00:26:45.927Z,99.90
2019-03-28T00:29:13.956Z,99.90
2019-03-28T00:31:41.959Z,99.90
2019-03-28T00:34:10.227Z,99.90
2019-03-28T00:36:38.308Z,99.90
2019-03-28T00:39:06.918Z,99.90
2019-03-28T00:41:34.911Z,99.90
2019-03-28T00:44:02.993Z,99.90
2019-03-28T00:46:30.981Z,99.90
2019-03-28T00:48:58.973Z,99.90
2019-03-28T00:51:26.986Z,99.90
2019-03-28T00:53:54.983Z,99.90
2019-03-28T00:56:22.993Z,99.90
2019-03-28T00:58:51.015Z,99.90
2019-03-28T01:01:19.042Z,99.90
2019-03-28T01:03:47.053Z,99.90
2019-03-28T01:06:15.073Z,99.90
2019-03-28T01:08:43.075Z,99.90
2019-03-28T01:11:11.124Z,99.90
2019-03-28T01:13:39.084Z,99.90
2019-03-28T01:16:07.118Z,99.90
2019-03-28T01:18:35.110Z,99.90
2019-03-28T01:21:03.098Z,99.90
2019-03-28T01:23:31.190Z,99.90
2019-03-28T01:25:59.221Z,99.90
2019-03-28T01:28:27.215Z,99.90
2019-03-28T01:30:55.254Z,99.90
2019-03-28T01:33:23.248Z,99.90
2019-03-28T01:35:51.248Z,99.90
2019-03-28T01:38:19.303Z,99.90
2019-03-28T01:40:48.163Z,99.90
2019-03-28T01:43:16.194Z,99.90
2019-03-28T01:45:44.180Z,99.90
2019-03-28T01:48:12.192Z,99.90
2019-03-28T01:50:40.174Z,99.90
2019-03-28T01:53:08.210Z,99.90
2019-03-28T01:55:36.337Z,99.90
2019-03-28T01:58:04.754Z,99.90
2019-03-28T02:08:18.851Z,99.90
2019-03-28T02:10:46.843Z,99.90
2019-03-28T02:13:42.428Z,99.90
2019-03-28T02:16:11.289Z,99.90
2019-03-28T02:18:39.273Z,99.90
2019-03-28T02:21:09.640Z,99.90
2019-03-28T02:23:37.095Z,99.90
2019-03-28T02:26:05.089Z,99.90
2019-03-28T02:28:33.104Z,99.90
2019-03-28T02:31:01.090Z,99.90
2019-03-28T02:33:29.315Z,99.90
2019-03-28T02:35:57.431Z,99.90
2019-03-28T02:38:25.422Z,99.90
2019-03-28T02:40:53.475Z,99.90
2019-03-28T02:43:21.482Z,99.90
2019-03-28T02:45:49.480Z,99.90
2019-03-28T02:48:17.520Z,99.90
2019-03-28T02:50:45.494Z,99.90
2019-03-28T02:53:13.773Z,99.90
2019-03-28T02:55:42.119Z,99.90
2019-03-28T02:58:10.801Z,99.90
2019-03-28T03:00:39.092Z,99.90
2019-03-28T03:03:07.119Z,99.90
2019-03-28T03:05:35.111Z,99.90
2019-03-28T03:08:03.218Z,99.90
2019-03-28T03:10:31.197Z,99.90
2019-03-28T03:12:59.224Z,99.90
2019-03-28T03:15:27.259Z,99.90
2019-03-28T03:17:55.822Z,99.90
2019-03-28T03:20:23.797Z,99.90
2019-03-28T03:22:51.841Z,99.90
2019-03-28T03:25:19.868Z,99.90
2019-03-28T03:27:57.591Z,99.90
2019-03-28T03:30:17.679Z,99.90
2019-03-28T03:32:45.742Z,99.90
2019-03-28T03:35:14.142Z,99.90
2019-03-28T03:37:42.124Z,99.90
2019-03-28T03:40:10.536Z,99.90
2019-03-28T03:42:38.580Z,99.90
2019-03-28T03:45:06.669Z,99.90
2019-03-28T03:47:34.673Z,99.90
2019-03-28T03:50:03.195Z,99.90
2019-03-28T03:52:31.281Z,99.90
2019-03-28T03:54:59.326Z,99.90
2019-03-28T03:57:27.330Z,99.90
2019-03-28T03:59:55.378Z,99.90
2019-03-28T04:02:23.373Z,99.90
2019-03-28T04:04:51.362Z,99.90
2019-03-28T04:07:19.379Z,99.90
2019-03-28T04:09:47.380Z,99.90
2019-03-28T04:12:15.425Z,99.90
2019-03-28T04:14:43.423Z,99.90
2019-03-28T04:17:11.419Z,99.90
2019-03-28T04:19:39.672Z,99.90
2019-03-28T04:22:07.673Z,99.90
2019-03-28T04:24:35.660Z,99.90
2019-03-28T04:27:03.700Z,99.90
2019-03-28T04:29:31.761Z,99.90
2019-03-28T04:31:59.780Z,99.90
2019-03-28T04:34:27.800Z,99.90
2019-03-28T04:36:56.049Z,99.90
2019-03-28T04:39:24.048Z,99.90
2019-03-28T04:41:52.029Z,99.90
2019-03-28T04:44:20.296Z,99.90
2019-03-28T04:46:48.352Z,99.90
2019-03-28T04:49:16.342Z,99.90
2019-03-28T04:51:44.378Z,99.90
2019-03-28T04:54:12.376Z,99.90
2019-03-28T04:56:40.384Z,99.90
2019-03-28T04:59:08.396Z,99.90
2019-03-28T05:01:36.380Z,99.90
2019-03-28T05:04:04.426Z,99.90
2019-03-28T05:06:32.456Z,99.90
2019-03-28T05:09:00.490Z,99.90
2019-03-28T05:11:28.496Z,99.90
2019-03-28T05:13:56.529Z,99.90
2019-03-28T05:16:24.524Z,99.90
2019-03-28T05:18:52.556Z,99.90
2019-03-28T05:21:20.584Z,99.90
2019-03-28T05:23:48.605Z,99.90
2019-03-28T05:26:16.627Z,99.90
2019-03-28T05:28:56.619Z,99.90
2019-03-28T05:31:14.483Z,99.90
2019-03-28T05:33:42.604Z,99.90
2019-03-28T05:36:10.801Z,99.90
2019-03-28T05:38:38.770Z,99.90
2019-03-28T05:41:06.817Z,99.90
2019-03-28T05:43:34.875Z,99.90
2019-03-28T05:46:02.902Z,99.90
2019-03-28T05:48:30.909Z,99.90
2019-03-28T05:50:58.923Z,99.90
2019-03-28T05:53:26.923Z,99.90
2019-03-28T05:55:54.986Z,99.90
2019-03-28T05:58:23.027Z,99.90
2019-03-28T06:00:51.465Z,99.90
2019-03-28T06:03:19.514Z,99.90
2019-03-28T06:05:47.890Z,99.90
2019-03-28T06:08:15.898Z,99.90
2019-03-28T06:10:43.896Z,99.90
2019-03-28T06:13:11.932Z,99.90
2019-03-28T06:15:41.191Z,99.90
2019-03-28T06:18:09.244Z,99.90
2019-03-28T06:20:37.275Z,99.90
2019-03-28T06:23:05.312Z,99.90
2019-03-28T06:25:33.397Z,99.90
2019-03-28T06:28:01.491Z,99.90
2019-03-28T06:30:29.490Z,99.90
2019-03-28T06:32:58.867Z,99.90
2019-03-28T06:35:27.046Z,99.90
2019-03-28T06:37:55.048Z,99.90
2019-03-28T06:40:23.268Z,99.90
2019-03-28T06:42:51.280Z,99.90
2019-03-28T06:45:19.273Z,99.90
2019-03-28T06:47:49.069Z,99.90
2019-03-28T06:50:17.114Z,99.90
2019-03-28T06:52:45.088Z,99.90
2019-03-28T06:55:13.186Z,99.90
2019-03-28T06:57:41.197Z,99.90
2019-03-28T07:00:10.197Z,99.90
2019-03-28T07:02:38.189Z,99.90
2019-03-28T07:05:06.560Z,99.90
2019-03-28T07:07:34.794Z,99.90
2019-03-28T07:10:03.392Z,99.90
2019-03-28T07:12:31.402Z,99.90
2019-03-28T07:14:59.828Z,99.90
2019-03-28T07:17:27.838Z,99.90
2019-03-28T07:19:55.853Z,99.90
2019-03-28T07:22:23.887Z,99.90
2019-03-28T07:24:51.932Z,99.90
2019-03-28T07:27:19.958Z,99.90
2019-03-28T07:29:51.019Z,99.90
2019-03-28T07:32:17.892Z,99.90
2019-03-28T07:34:45.906Z,99.90
2019-03-28T07:37:13.908Z,99.90
2019-03-28T07:39:41.916Z,99.90
2019-03-28T07:42:09.959Z,99.90
2019-03-28T07:44:37.965Z,99.90
2019-03-28T07:47:05.986Z,99.90
2019-03-28T07:49:37.324Z,99.90
2019-03-28T07:52:03.815Z,99.90
2019-03-28T07:54:31.810Z,99.90
2019-03-28T07:56:59.977Z,99.30
2019-03-28T07:59:28.097Z,97.70
2019-03-28T08:01:56.096Z,98.30
2019-03-28T08:04:24.117Z,98.20
2019-03-28T08:06:52.147Z,99.50
2019-03-28T08:09:20.135Z,98.00
2019-03-28T08:11:48.501Z,98.20
2019-03-28T08:14:16.564Z,97.40
2019-03-28T08:16:44.599Z,98.30
2019-03-28T08:19:12.584Z,99.30
2019-03-28T08:21:40.581Z,97.00
2019-03-28T08:24:08.638Z,92.90
2019-03-28T08:26:36.630Z,91.10
2019-03-28T08:29:04.648Z,87.70
2019-03-28T08:31:32.686Z,88.70
2019-03-28T08:34:01.926Z,88.70
2019-03-28T08:36:30.123Z,91.10
2019-03-28T08:38:58.242Z,87.00
2019-03-28T08:41:26.301Z,87.90
2019-03-28T08:43:54.358Z,86.60
2019-03-28T08:46:22.405Z,79.50
2019-03-28T08:48:50.457Z,82.00
2019-03-28T08:51:18.436Z,78.40
2019-03-28T08:53:46.475Z,79.30
2019-03-28T08:56:14.471Z,79.50
2019-03-28T08:58:42.486Z,73.30
2019-03-28T09:01:10.497Z,71.30
2019-03-28T09:03:38.543Z,72.90
2019-03-28T09:06:06.525Z,74.60
2019-03-28T09:08:34.637Z,71.00
2019-03-28T09:11:02.630Z,73.70
2019-03-28T09:13:30.658Z,71.30
2019-03-28T09:15:58.676Z,69.40
2019-03-28T09:18:26.665Z,70.20
2019-03-28T09:20:54.716Z,65.00
2019-03-28T09:23:22.789Z,64.10
2019-03-28T09:25:50.791Z,58.70
2019-03-28T09:28:18.949Z,57.30
2019-03-28T09:30:49.214Z,56.70
2019-03-28T09:33:16.811Z,57.30
2019-03-28T09:35:44.860Z,54.20
2019-03-28T09:38:12.958Z,55.30
2019-03-28T09:40:41.013Z,57.10
2019-03-28T09:43:09.033Z,60.40
2019-03-28T09:45:37.023Z,59.80
2019-03-28T09:48:05.041Z,57.10
2019-03-28T09:50:33.063Z,57.10
2019-03-28T09:53:01.060Z,55.90
2019-03-28T09:55:29.113Z,55.10
2019-03-28T09:57:57.273Z,55.80
2019-03-28T10:00:25.293Z,53.90
2019-03-28T10:02:53.328Z,55.50
2019-03-28T10:05:21.395Z,56.00
2019-03-28T10:07:49.404Z,57.20
2019-03-28T10:10:17.454Z,55.10
2019-03-28T10:12:45.458Z,55.90
2019-03-28T10:15:13.828Z,57.90
2019-03-28T10:17:42.567Z,61.10
2019-03-28T10:20:10.864Z,62.00
2019-03-28T10:22:38.959Z,63.30
2019-03-28T10:25:07.946Z,64.60
2019-03-28T10:27:35.980Z,64.70
2019-03-28T10:30:05.154Z,60.30
2019-03-28T10:32:33.147Z,63.70
2019-03-28T10:35:01.495Z,58.90
2019-03-28T10:37:29.529Z,59.00
2019-03-28T10:39:57.562Z,62.20
2019-03-28T10:42:25.568Z,61.50
2019-03-28T10:44:53.680Z,62.90
2019-03-28T10:47:21.693Z,64.90
2019-03-28T10:49:49.698Z,63.10
2019-03-28T10:52:17.708Z,66.80
2019-03-28T10:54:45.700Z,71.40
2019-03-28T10:57:28.716Z,71.10
2019-03-28T10:59:43.599Z,73.40
2019-03-28T11:02:12.577Z,74.20
2019-03-28T11:04:40.685Z,72.20
2019-03-28T11:07:08.750Z,69.20
2019-03-28T11:09:36.761Z,66.60
2019-03-28T11:12:04.780Z,66.40
2019-03-28T11:14:32.791Z,64.10
2019-03-28T11:17:00.782Z,61.30
2019-03-28T11:19:28.823Z,62.80
2019-03-28T11:21:56.950Z,58.40
2019-03-28T11:24:25.018Z,58.30
2019-03-28T11:26:52.997Z,60.10
2019-03-28T11:29:21.033Z,62.50
2019-03-28T11:31:52.174Z,63.40
2019-03-28T11:34:18.899Z,66.50
2019-03-28T11:36:46.912Z,68.70
2019-03-28T11:39:14.893Z,72.20
2019-03-28T11:41:42.938Z,75.10
2019-03-28T11:44:11.541Z,77.30
2019-03-28T11:46:39.597Z,80.90
2019-03-28T11:49:07.667Z,87.60
2019-03-28T11:51:36.422Z,89.70
2019-03-28T11:54:04.558Z,90.80
2019-03-28T11:56:32.765Z,91.00
2019-03-28T11:59:04.211Z,92.70
2019-03-28T12:01:30.592Z,95.70
2019-03-28T12:03:58.607Z,96.30
2019-03-28T12:06:26.650Z,95.70
2019-03-28T12:08:56.000Z,96.40
2019-03-28T12:11:24.237Z,97.70
2019-03-28T12:13:52.269Z,99.20
2019-03-28T12:16:20.321Z,98.30
2019-03-28T12:18:48.307Z,95.30
2019-03-28T12:21:16.287Z,97.40
2019-03-28T12:23:44.330Z,96.80
2019-03-28T12:26:12.334Z,96.50
2019-03-28T12:28:40.370Z,96.20
2019-03-28T12:31:08.383Z,96.90
2019-03-28T12:33:36.370Z,95.90
2019-03-28T12:36:04.714Z,96.70
2019-03-28T12:38:32.707Z,95.90
2019-03-28T12:41:00.664Z,95.90
2019-03-28T12:43:28.877Z,95.70
2019-03-28T12:45:56.922Z,95.20
2019-03-28T12:48:24.946Z,96.30
2019-03-28T12:50:58.719Z,97.30
2019-03-28T12:53:22.830Z,98.60
2019-03-28T12:55:50.890Z,97.50
2019-03-28T12:58:18.928Z,96.80
2019-03-28T13:00:46.922Z,97.10
2019-03-28T13:03:14.913Z,97.30
2019-03-28T13:05:42.956Z,97.00
2019-03-28T13:08:10.980Z,97.80
2019-03-28T13:10:38.958Z,97.40
2019-03-28T13:13:07.065Z,99.00
2019-03-28T13:15:35.111Z,99.80
2019-03-28T13:18:03.097Z,99.90
2019-03-28T13:20:31.326Z,99.90
2019-03-28T13:23:18.546Z,99.90
2019-03-28T13:25:46.535Z,99.90
2019-03-28T13:28:14.550Z,99.90
2019-03-28T13:30:42.597Z,99.90
2019-03-28T13:33:10.666Z,99.90
2019-03-28T13:35:38.736Z,99.90
2019-03-28T13:38:06.757Z,99.90
2019-03-28T13:40:34.840Z,99.90
2019-03-28T13:43:02.909Z,99.90
2019-03-28T13:45:30.923Z,99.90
2019-03-28T13:47:59.145Z,99.90
2019-03-28T13:50:27.171Z,99.90
2019-03-28T13:52:55.241Z,99.90
2019-03-28T13:55:23.306Z,99.90
2019-03-28T13:57:52.318Z,99.90
2019-03-28T14:00:29.820Z,99.90
2019-03-28T14:02:59.096Z,99.90
2019-03-28T14:05:28.094Z,99.90
2019-03-28T14:07:56.113Z,99.90
2019-03-28T14:10:24.200Z,99.90
2019-03-28T14:12:52.218Z,99.90
2019-03-28T14:15:20.305Z,99.90
2019-03-28T14:17:48.353Z,99.90
2019-03-28T14:20:17.089Z,99.90
2019-03-28T14:22:45.147Z,99.90
2019-03-28T14:25:13.193Z,99.90
2019-03-28T14:27:41.209Z,99.90
2019-03-28T14:30:10.749Z,99.90
2019-03-28T14:32:52.086Z,99.90
2019-03-28T14:35:09.557Z,99.90
2019-03-28T14:37:40.615Z,99.90
2019-03-28T14:40:07.712Z,99.90
2019-03-28T14:42:37.865Z,99.90
2019-03-28T14:45:07.455Z,99.90
2019-03-28T14:47:36.593Z,99.90
2019-03-28T14:50:05.693Z,99.90
2019-03-28T14:52:33.760Z,99.90
2019-03-28T14:55:01.909Z,99.90
2019-03-28T14:57:30.409Z,99.90
2019-03-28T14:59:59.976Z,99.90
2019-03-28T15:02:27.977Z,99.90
2019-03-28T15:04:56.064Z,99.90
2019-03-28T15:07:24.113Z,99.90
2019-03-28T15:09:52.136Z,99.90
2019-03-28T15:12:20.193Z,99.90
2019-03-28T15:14:48.231Z,99.90
2019-03-28T15:17:16.290Z,99.90
2019-03-28T15:19:44.363Z,99.90
2019-03-28T15:22:12.419Z,99.90
2019-03-28T15:24:40.466Z,99.90
2019-03-28T15:27:08.500Z,99.90
2019-03-28T15:29:36.544Z,99.90
2019-03-28T15:32:04.541Z,99.90
2019-03-28T15:34:32.609Z,99.90
2019-03-28T15:37:00.633Z,99.90
2019-03-28T15:39:28.648Z,99.90
2019-03-28T15:41:56.716Z,99.90
2019-03-28T15:44:25.081Z,99.90
2019-03-28T15:46:53.373Z,99.90
2019-03-28T15:49:21.430Z,99.90
2019-03-28T15:51:49.443Z,99.90
2019-03-28T15:54:17.481Z,99.90
2019-03-28T15:56:45.529Z,99.90
2019-03-28T15:59:13.640Z,99.90
2019-03-28T16:01:41.660Z,99.90
2019-03-28T16:04:09.703Z,99.90
2019-03-28T16:06:37.762Z,99.90
2019-03-28T16:09:07.140Z,99.90
2019-03-28T16:11:35.122Z,99.90
2019-03-28T16:14:03.272Z,99.90
2019-03-28T16:16:31.360Z,99.90
2019-03-28T16:19:01.611Z,99.90
2019-03-28T16:21:29.253Z,99.90
2019-03-28T16:23:57.350Z,99.90
2019-03-28T16:26:25.393Z,99.90
2019-03-28T16:28:56.364Z,99.90
2019-03-28T16:31:23.342Z,99.90
2019-03-28T16:33:51.386Z,99.90
2019-03-28T16:36:19.437Z,99.90
2019-03-28T16:38:47.489Z,99.90
2019-03-28T16:41:15.630Z,99.90
2019-03-28T16:43:43.678Z,99.90
2019-03-28T16:46:11.728Z,99.90
2019-03-28T16:48:39.745Z,99.90
2019-03-28T16:51:07.822Z,99.90
2019-03-28T16:53:35.959Z,99.90
2019-03-28T16:56:03.951Z,99.90
2019-03-28T16:58:32.059Z,99.90
2019-03-28T17:01:00.171Z,99.90
2019-03-28T17:03:28.259Z,99.90
2019-03-28T17:05:56.325Z,99.90
2019-03-28T17:08:25.842Z,99.90
2019-03-28T17:10:54.129Z,99.90
2019-03-28T17:13:22.380Z,99.90
2019-03-28T17:15:51.171Z,99.90
2019-03-28T17:18:19.488Z,99.90
2019-03-28T17:20:47.527Z,99.90
2019-03-28T17:23:15.693Z,99.90
2019-03-28T17:25:43.836Z,99.90
2019-03-28T17:28:11.886Z,99.90
2019-03-28T17:30:40.060Z,99.90
2019-03-28T17:33:08.088Z,99.90
2019-03-28T17:35:36.306Z,99.90
2019-03-28T17:38:04.315Z,99.90
2019-03-28T17:40:32.389Z,99.90
2019-03-28T17:43:00.562Z,99.90
2019-03-28T17:45:28.713Z,99.90
2019-03-28T17:47:56.977Z,99.90
2019-03-28T17:50:25.055Z,99.90
2019-03-28T17:52:53.684Z,99.90
2019-03-28T17:55:22.140Z,99.90
2019-03-28T17:57:50.136Z,99.90
2019-03-28T18:00:18.400Z,99.90
2019-03-28T18:02:46.671Z,99.90
2019-03-28T18:05:15.997Z,99.90
2019-03-28T18:07:44.712Z,99.90
2019-03-28T18:10:19.233Z,99.90
2019-03-28T18:12:47.351Z,99.90
2019-03-28T18:15:15.741Z,99.90
2019-03-28T18:17:43.815Z,99.90
2019-03-28T18:20:12.178Z,99.90
2019-03-28T18:22:40.263Z,99.90
2019-03-28T18:25:08.422Z,99.90
2019-03-28T18:27:36.490Z,99.90
2019-03-28T18:30:05.658Z,99.90
2019-03-28T18:32:34.115Z,99.90
2019-03-28T18:35:05.631Z,99.90
2019-03-28T18:37:32.197Z,99.90
2019-03-28T18:40:03.653Z,99.90
2019-03-28T18:42:30.181Z,99.90
2019-03-28T18:44:58.228Z,99.90
2019-03-28T18:47:26.276Z,99.90
2019-03-28T18:49:54.328Z,99.90
2019-03-28T18:52:22.642Z,99.90
2019-03-28T18:54:50.741Z,99.90
2019-03-28T18:57:19.898Z,99.90
2019-03-28T18:59:48.121Z,99.90
2019-03-28T19:02:16.163Z,99.90
2019-03-28T19:04:44.242Z,99.90
2019-03-28T19:07:12.315Z,99.90
2019-03-28T19:09:40.516Z,99.90
2019-03-28T19:12:08.570Z,99.90
2019-03-28T19:14:36.634Z,99.90
2019-03-28T19:17:04.755Z,99.90
2019-03-28T19:19:39.281Z,99.90
2019-03-28T19:22:02.645Z,99.90
2019-03-28T19:24:30.723Z,99.90
2019-03-28T19:26:58.912Z,99.90
2019-03-28T19:29:26.938Z,99.90
2019-03-28T19:31:54.975Z,99.90
2019-03-28T19:34:23.054Z,99.90
2019-03-28T19:37:10.381Z,99.90
2019-03-28T19:39:39.933Z,99.90
2019-03-28T19:42:08.111Z,99.90
2019-03-28T19:44:36.272Z,99.90
2019-03-28T19:47:11.304Z,99.90
2019-03-28T19:49:45.146Z,99.90
2019-03-28T19:52:14.747Z,99.90
2019-03-28T19:54:43.257Z,99.90
2019-03-28T19:57:13.027Z,99.90
2019-03-28T19:59:44.624Z,99.90
2019-03-28T20:02:14.353Z,99.90
2019-03-28T20:04:51.019Z,99.90
2019-03-28T20:10:39.042Z,99.90
2019-03-28T20:13:08.270Z,99.90
2019-03-28T20:16:43.566Z,99.90
2019-03-28T20:19:38.659Z,99.90
2019-03-28T20:22:07.136Z,99.90
2019-03-28T20:24:38.508Z,99.90
2019-03-28T20:27:07.160Z,99.90
2019-03-28T20:29:42.583Z,99.90
2019-03-28T20:32:17.923Z,99.90
2019-03-28T20:34:55.400Z,99.90
2019-03-28T20:37:25.595Z,99.90
2019-03-28T20:40:43.184Z,99.90
2019-03-28T20:43:11.529Z,99.90
2019-03-28T20:46:03.852Z,99.90
2019-03-28T20:49:01.887Z,99.90
2019-03-28T20:51:30.590Z,99.90
2019-03-28T20:54:00.399Z,99.90
2019-03-28T20:56:29.259Z,99.90
2019-03-28T20:58:57.330Z,99.90
2019-03-28T21:01:26.418Z,99.90
2019-03-28T21:03:54.498Z,99.90
2019-03-28T21:06:22.695Z,99.90
2019-03-28T21:08:50.741Z,99.90
2019-03-28T21:11:18.754Z,99.90
2019-03-28T21:13:46.843Z,99.90
2019-03-28T21:16:14.906Z,99.90
2019-03-28T21:18:43.022Z,99.90
2019-03-28T21:21:11.080Z,99.90
2019-03-28T21:23:39.146Z,99.90
2019-03-28T21:26:07.220Z,99.90
2019-03-28T21:28:46.491Z,99.90
2019-03-28T21:31:05.054Z,99.90
2019-03-28T21:33:33.132Z,99.90
2019-03-28T21:36:01.155Z,99.90
2019-03-28T21:38:29.174Z,99.90
2019-03-28T21:40:59.558Z,99.90
2019-03-28T21:43:27.081Z,99.90
2019-03-28T21:45:55.123Z,99.90
2019-03-28T21:48:23.186Z,99.90
2019-03-28T21:50:51.245Z,99.90
2019-03-28T21:53:20.105Z,99.90
2019-03-28T21:55:55.145Z,99.90
2019-03-28T21:58:18.085Z,99.90
2019-03-28T22:00:46.135Z,99.90
2019-03-28T22:03:14.212Z,99.90
2019-03-28T22:05:42.213Z,99.90
2019-03-28T22:08:13.076Z,99.90
2019-03-28T22:10:41.082Z,99.90
2019-03-28T22:13:11.974Z,99.90
2019-03-28T22:15:39.007Z,99.90
2019-03-28T22:18:07.166Z,99.90
2019-03-28T22:20:35.876Z,99.90
2019-03-28T22:23:03.885Z,99.90
2019-03-28T22:25:31.921Z,99.90
2019-03-28T22:28:01.781Z,99.90
2019-03-28T22:30:29.847Z,99.90
2019-03-28T22:32:57.837Z,99.90
2019-03-28T22:35:25.963Z,99.90
2019-03-28T22:37:54.794Z,99.90
2019-03-28T22:40:22.832Z,99.90
2019-03-28T22:42:50.883Z,99.90
2019-03-28T22:45:18.999Z,99.90
2019-03-28T22:47:47.029Z,99.90
2019-03-28T22:50:15.276Z,99.90
2019-03-28T22:52:43.293Z,99.90
2019-03-28T22:55:11.652Z,99.90
2019-03-28T22:57:39.659Z,99.90
2019-03-28T23:00:09.407Z,99.90
2019-03-28T23:02:37.427Z,99.90
2019-03-28T23:05:06.289Z,99.90
2019-03-28T23:07:34.383Z,99.90
2019-03-28T23:10:02.777Z,99.90
2019-03-28T23:12:30.905Z,99.90
2019-03-28T23:14:58.933Z,99.90
2019-03-28T23:17:26.993Z,99.90
2019-03-28T23:19:54.991Z,99.90
2019-03-28T23:22:23.038Z,99.90
2019-03-28T23:24:51.064Z,99.90
2019-03-28T23:27:19.102Z,99.90
2019-03-28T23:29:49.943Z,99.90
2019-03-28T23:32:17.940Z,99.90
2019-03-28T23:34:45.962Z,99.90
2019-03-28T23:37:24.128Z,99.90
2019-03-28T23:39:44.045Z,99.90
2019-03-28T23:42:12.075Z,99.90
2019-03-28T23:44:40.144Z,99.90
2019-03-28T23:47:08.195Z,99.90
2019-03-28T23:49:38.605Z,99.90
2019-03-28T23:52:06.095Z,99.90
2019-03-28T23:54:34.092Z,99.90
2019-03-28T23:57:02.989Z,99.90
2019-03-28T23:59:31.156Z,99.90
